Time;durP1;ratioP1;P1;durP2;ratioP2;P2;SDS_P1;SDS_P2;PMS_P1;PMS_P2;Temp;Humidity;BMP_temperature;BMP_pressure;BME280_temperature;BME280_humidity;BME280_pressure;Samples;Min_cycle;Max_cycle;Signal;HPM_P1;HPM_P2
2022/08/18 00:02:20;;;;;;;7.63;6.90;;;25.90;48.90;;;;;;5054698;28;20471;-90
2022/08/18 00:04:48;;;;;;;7.10;6.50;;;25.90;49.00;;;;;;5068691;28;20444;-91
2022/08/18 00:07:17;;;;;;;7.80;7.00;;;25.90;49.00;;;;;;5067993;28;20459;-90
2022/08/18 00:09:46;;;;;;;8.70;7.30;;;25.90;49.10;;;;;;5069472;28;20443;-92
2022/08/18 00:12:16;;;;;;;8.27;7.47;;;25.90;49.90;;;;;;5060660;28;20466;-88
2022/08/18 00:14:44;;;;;;;8.93;7.23;;;25.80;49.90;;;;;;5052972;28;20450;-90
2022/08/18 00:17:11;;;;;;;8.40;6.53;;;25.80;49.80;;;;;;5053062;28;20475;-90
2022/08/18 00:19:40;;;;;;;7.80;7.10;;;25.80;49.60;;;;;;5053572;28;20993;-88
2022/08/18 00:22:07;;;;;;;8.90;8.10;;;25.70;50.00;;;;;;5045602;28;20505;-89
2022/08/18 00:24:34;;;;;;;9.10;8.17;;;25.70;50.30;;;;;;5057461;28;20499;-90
2022/08/18 00:27:02;;;;;;;11.90;7.57;;;25.70;50.20;;;;;;5053628;28;20451;-89
2022/08/18 00:29:29;;;;;;;8.87;7.00;;;25.70;50.00;;;;;;5043936;28;20446;-88
2022/08/18 00:31:56;;;;;;;7.93;7.13;;;25.70;49.20;;;;;;5051957;28;20562;-89
2022/08/18 00:34:23;;;;;;;11.03;7.93;;;25.30;50.10;;;;;;5060558;28;20446;-89
2022/08/18 00:36:52;;;;;;;7.80;7.00;;;25.00;50.70;;;;;;5052935;28;20542;-90
2022/08/18 00:39:19;;;;;;;8.87;7.40;;;25.10;50.50;;;;;;5059246;28;20487;-91
2022/08/18 00:41:46;;;;;;;7.13;6.43;;;25.20;50.10;;;;;;5048408;28;20471;-88
2022/08/18 00:44:15;;;;;;;9.70;6.63;;;25.40;50.00;;;;;;5044527;28;20505;-91
2022/08/18 00:46:42;;;;;;;10.23;7.33;;;25.40;49.70;;;;;;5051374;28;20459;-88
2022/08/18 00:49:09;;;;;;;8.10;7.30;;;25.60;49.80;;;;;;5059188;28;21347;-90
2022/08/18 00:51:42;;;;;;;9.13;8.13;;;25.40;50.80;;;;;;5041540;28;20479;-89
2022/08/18 00:54:18;;;;;;;8.77;6.80;;;25.30;51.00;;;;;;5060795;28;20455;-88
2022/08/18 00:56:49;;;;;;;9.30;7.80;;;25.20;51.30;;;;;;5063918;28;20492;-92
2022/08/18 00:59:23;;;;;;;7.33;6.47;;;25.30;51.20;;;;;;5058664;28;20454;-91
2022/08/18 01:01:54;;;;;;;7.77;6.97;;;25.40;50.50;;;;;;5055733;28;20459;-90
2022/08/18 01:04:28;;;;;;;7.73;6.93;;;25.50;50.40;;;;;;5050783;28;20997;-92
2022/08/18 01:07:00;;;;;;;8.53;7.60;;;25.50;50.60;;;;;;5050879;28;20484;-88
2022/08/18 01:09:28;;;;;;;9.50;6.87;;;25.50;50.70;;;;;;5059649;28;20440;-88
2022/08/18 01:11:56;;;;;;;9.33;7.67;;;25.50;50.00;;;;;;5061861;28;20471;-91
2022/08/18 01:14:23;;;;;;;7.83;7.13;;;25.60;50.30;;;;;;5044777;28;20454;-88
2022/08/18 01:22:26;;;;;;;7.83;6.90;;;25.60;50.20;;;;;;5047256;28;20438;-88
2022/08/18 01:27:43;;;;;;;7.70;7.00;;;25.50;49.50;;;;;;5049257;28;20468;-88
2022/08/18 01:30:13;;;;;;;8.73;7.47;;;25.50;49.80;;;;;;5083994;28;21031;-89
2022/08/18 01:32:44;;;;;;;10.93;7.40;;;25.50;50.50;;;;;;5058595;28;20951;-91
2022/08/18 01:35:14;;;;;;;9.80;7.13;;;25.50;50.70;;;;;;5060887;28;20448;-92
2022/08/18 01:37:42;;;;;;;7.90;7.20;;;25.50;50.70;;;;;;5049847;28;20459;-89
2022/08/18 01:40:13;;;;;;;7.70;7.00;;;25.40;51.50;;;;;;5050718;28;20490;-93
2022/08/18 01:42:42;;;;;;;6.63;6.03;;;25.40;51.40;;;;;;5045511;28;20519;-88
2022/08/18 01:45:10;;;;;;;8.00;7.30;;;25.40;51.20;;;;;;5040561;28;20978;-90
2022/08/18 01:47:39;;;;;;;8.10;7.30;;;25.30;51.10;;;;;;5061374;28;20526;-91
2022/08/18 01:50:09;;;;;;;6.60;6.00;;;25.40;51.10;;;;;;5058387;28;21010;-89
2022/08/18 01:52:36;;;;;;;11.20;7.90;;;25.50;50.60;;;;;;5058388;28;20485;-90
2022/08/18 01:55:06;;;;;;;6.73;6.00;;;25.40;50.10;;;;;;5060123;28;20482;-91
2022/08/18 01:57:40;;;;;;;8.53;6.47;;;25.40;50.20;;;;;;5051889;28;20960;-89
2022/08/18 02:00:09;;;;;;;6.97;6.30;;;25.40;50.20;;;;;;5058754;28;20538;-88
2022/08/18 02:02:40;;;;;;;9.90;6.63;;;25.40;50.30;;;;;;5071381;28;20959;-89
2022/08/18 02:05:14;;;;;;;7.63;6.30;;;25.50;50.10;;;;;;5049358;28;20885;-88
2022/08/18 02:07:41;;;;;;;6.80;6.20;;;25.50;49.90;;;;;;5051541;28;20866;-88
2022/08/18 02:10:10;;;;;;;7.50;6.80;;;25.50;50.00;;;;;;5046666;28;20518;-91
2022/08/18 02:12:39;;;;;;;7.03;5.90;;;25.60;49.90;;;;;;5040802;28;20460;-88
2022/08/18 02:15:08;;;;;;;8.33;6.27;;;25.80;49.70;;;;;;5043367;28;20455;-90
2022/08/18 02:17:38;;;;;;;9.30;6.27;;;25.80;49.40;;;;;;5074274;28;20970;-90
2022/08/18 02:20:07;;;;;;;6.30;5.80;;;25.90;49.10;;;;;;5059428;28;20451;-91
2022/08/18 02:22:34;;;;;;;6.87;6.27;;;26.00;49.10;;;;;;5067397;28;20539;-88
2022/08/18 02:25:02;;;;;;;7.23;6.00;;;25.90;49.10;;;;;;5049164;28;20955;-89
2022/08/18 02:27:29;;;;;;;7.57;6.57;;;25.90;48.90;;;;;;5045014;28;20943;-93
2022/08/18 02:30:00;;;;;;;6.73;6.13;;;26.00;49.30;;;;;;5062038;28;20466;-89
2022/08/18 02:32:28;;;;;;;6.90;6.23;;;26.10;49.30;;;;;;5041294;28;20467;-89
2022/08/18 02:34:55;;;;;;;7.00;6.30;;;26.10;49.60;;;;;;5051374;28;20858;-89
2022/08/18 02:37:22;;;;;;;9.90;6.80;;;26.00;49.80;;;;;;5069984;28;20463;-91
2022/08/18 02:39:49;;;;;;;6.77;6.07;;;25.80;50.00;;;;;;5045283;28;20517;-92
2022/08/18 02:42:16;;;;;;;7.23;6.47;;;25.90;50.20;;;;;;5074186;28;20474;-90
2022/08/18 02:44:43;;;;;;;10.53;6.30;;;25.90;50.20;;;;;;5048527;28;21064;-89
2022/08/18 02:47:12;;;;;;;8.47;6.27;;;26.00;50.40;;;;;;5041430;28;20483;-88
2022/08/18 02:49:39;;;;;;;6.93;6.17;;;26.10;50.20;;;;;;5058174;28;20483;-88
2022/08/18 02:52:06;;;;;;;9.27;7.70;;;26.10;50.60;;;;;;5049756;28;20985;-92
2022/08/18 02:54:34;;;;;;;7.73;6.93;;;26.10;50.00;;;;;;5049504;28;20484;-88
2022/08/18 02:57:06;;;;;;;7.83;7.03;;;26.10;50.60;;;;;;5046364;28;20451;-90
2022/08/18 02:59:34;;;;;;;7.00;6.13;;;26.20;50.80;;;;;;5074365;28;20474;-89
2022/08/18 03:02:01;;;;;;;7.93;7.13;;;26.20;50.30;;;;;;5060367;28;20554;-89
2022/08/18 03:04:30;;;;;;;6.97;6.30;;;26.20;50.40;;;;;;5056907;28;20975;-89
2022/08/18 03:07:00;;;;;;;9.43;6.00;;;26.20;49.80;;;;;;5068435;28;20511;-88
2022/08/18 03:09:29;;;;;;;6.70;6.10;;;26.20;50.30;;;;;;5049815;28;20530;-89
2022/08/18 03:11:57;;;;;;;8.67;7.43;;;26.10;49.90;;;;;;5053094;28;20498;-90
2022/08/18 03:14:24;;;;;;;9.20;6.80;;;26.10;49.90;;;;;;5052736;28;20447;-90
2022/08/18 03:16:52;;;;;;;8.10;7.30;;;26.10;50.10;;;;;;5043615;28;21030;-88
2022/08/18 03:19:19;;;;;;;6.20;5.60;;;26.10;49.70;;;;;;5075036;28;21022;-89
2022/08/18 03:21:48;;;;;;;6.73;6.13;;;26.10;50.00;;;;;;5049855;28;20478;-88
2022/08/18 03:24:16;;;;;;;7.10;6.40;;;26.10;49.90;;;;;;5064589;28;20483;-91
2022/08/18 03:26:44;;;;;;;7.10;6.40;;;26.10;50.30;;;;;;5057238;28;20462;-90
2022/08/18 03:29:12;;;;;;;6.40;5.80;;;26.10;50.30;;;;;;5062623;28;20958;-88
2022/08/18 03:31:42;;;;;;;6.70;6.10;;;26.10;50.70;;;;;;5054809;28;20831;-88
2022/08/18 03:34:09;;;;;;;12.07;6.50;;;26.20;50.80;;;;;;5051475;28;20534;-91
2022/08/18 03:36:37;;;;;;;9.43;6.43;;;26.10;50.70;;;;;;5065366;28;20467;-91
2022/08/18 03:39:08;;;;;;;6.13;5.53;;;26.10;50.60;;;;;;5059470;28;20446;-90
2022/08/18 03:41:38;;;;;;;10.83;7.00;;;26.10;51.30;;;;;;5059273;28;20506;-93
2022/08/18 03:44:06;;;;;;;7.23;6.53;;;26.10;50.50;;;;;;5069597;28;20463;-93
2022/08/18 03:46:33;;;;;;;7.73;6.90;;;26.10;51.40;;;;;;5068927;28;20450;-91
2022/08/18 03:49:01;;;;;;;7.10;6.40;;;26.00;50.70;;;;;;5043839;28;20479;-89
2022/08/18 03:51:30;;;;;;;7.30;6.10;;;26.00;52.50;;;;;;5043194;28;20467;-92
2022/08/18 03:54:00;;;;;;;7.50;6.27;;;26.00;52.10;;;;;;5045773;28;20446;-91
2022/08/18 03:56:32;;;;;;;8.90;6.30;;;26.00;52.00;;;;;;5052944;28;20475;-88
2022/08/18 03:59:01;;;;;;;11.90;7.47;;;25.90;51.80;;;;;;5051870;28;20456;-93
2022/08/18 04:01:31;;;;;;;7.03;6.30;;;25.80;52.00;;;;;;5069037;28;20472;-89
2022/08/18 04:04:00;;;;;;;6.97;6.27;;;25.50;52.80;;;;;;5068553;28;20458;-90
2022/08/18 04:06:31;;;;;;;7.43;6.73;;;25.40;53.90;;;;;;5076695;28;20501;-88
2022/08/18 04:09:00;;;;;;;9.30;6.03;;;25.30;54.00;;;;;;5076125;28;20459;-87
2022/08/18 04:11:31;;;;;;;6.97;6.30;;;25.40;54.90;;;;;;5053671;28;21018;-90
2022/08/18 04:13:58;;;;;;;8.30;6.73;;;25.40;55.30;;;;;;5068724;28;20551;-90
2022/08/18 04:16:25;;;;;;;8.03;6.70;;;25.30;56.00;;;;;;5059348;28;20471;-90
2022/08/18 04:18:52;;;;;;;7.23;6.47;;;25.30;54.20;;;;;;5052173;28;20460;-90
2022/08/18 04:21:20;;;;;;;6.97;6.23;;;25.00;55.80;;;;;;5049700;28;20555;-88
2022/08/18 04:23:47;;;;;;;8.03;6.73;;;25.10;55.80;;;;;;5054568;28;20847;-91
2022/08/18 04:26:14;;;;;;;7.60;6.70;;;25.00;56.40;;;;;;5077943;28;20493;-88
2022/08/18 04:28:54;;;;;;;8.07;7.00;;;25.00;56.10;;;;;;5074271;28;20451;-88
2022/08/18 04:31:33;;;;;;;8.67;7.60;;;25.00;56.30;;;;;;5066643;28;20474;-87
2022/08/18 04:34:02;;;;;;;7.10;6.30;;;25.00;56.90;;;;;;5102447;28;20477;-87
2022/08/18 04:36:32;;;;;;;7.20;6.50;;;24.50;57.90;;;;;;5049035;28;21015;-90
2022/08/18 04:39:00;;;;;;;8.03;6.30;;;24.50;58.10;;;;;;5078356;28;20963;-87
2022/08/18 04:41:28;;;;;;;8.03;6.37;;;24.60;57.80;;;;;;5068322;28;20499;-90
2022/08/18 04:43:58;;;;;;;6.80;6.10;;;24.70;58.60;;;;;;5053346;28;20845;-90
2022/08/18 04:46:26;;;;;;;7.00;6.30;;;24.90;57.70;;;;;;5078080;28;20450;-88
2022/08/18 04:48:57;;;;;;;8.17;6.73;;;25.00;57.80;;;;;;5051364;28;20496;-88
2022/08/18 04:54:16;;;;;;;7.53;6.73;;;25.20;57.60;;;;;;5055472;28;20443;-87
2022/08/18 04:56:43;;;;;;;7.93;7.13;;;25.30;57.00;;;;;;5091587;28;20486;-88
2022/08/18 04:59:13;;;;;;;11.60;7.00;;;25.30;56.70;;;;;;5055836;28;20731;-86
2022/08/18 05:01:44;;;;;;;7.27;6.53;;;25.40;56.60;;;;;;5089156;28;20972;-87
2022/08/18 05:04:12;;;;;;;7.30;6.60;;;25.40;57.00;;;;;;5047136;28;20454;-88
2022/08/18 05:06:40;;;;;;;7.20;6.57;;;25.40;57.20;;;;;;5089721;28;20439;-88
2022/08/18 05:09:09;;;;;;;8.63;7.73;;;25.10;58.40;;;;;;5070582;28;20455;-87
2022/08/18 05:11:37;;;;;;;9.30;8.30;;;25.10;58.10;;;;;;5090317;28;20473;-89
2022/08/18 05:14:07;;;;;;;8.00;6.57;;;25.10;58.20;;;;;;5088179;28;20444;-87
2022/08/18 05:16:37;;;;;;;8.27;7.30;;;25.10;57.90;;;;;;5068888;28;20448;-87
2022/08/18 05:19:04;;;;;;;8.77;7.73;;;25.10;57.80;;;;;;5094378;28;20473;-87
2022/08/18 05:21:32;;;;;;;8.97;7.70;;;24.90;58.60;;;;;;5086760;28;20471;-86
2022/08/18 05:24:00;;;;;;;9.10;7.27;;;25.00;58.10;;;;;;5091270;28;20800;-86
2022/08/18 05:26:27;;;;;;;8.50;7.67;;;25.10;58.50;;;;;;5073617;28;20675;-86
2022/08/18 05:28:54;;;;;;;7.97;6.67;;;25.20;58.60;;;;;;5073118;28;20475;-86
2022/08/18 05:31:24;;;;;;;8.30;7.50;;;25.20;57.60;;;;;;5089954;28;20502;-87
2022/08/18 05:33:54;;;;;;;9.70;8.17;;;25.30;58.40;;;;;;5073934;28;21288;-88
2022/08/18 05:36:50;;;;;;;10.63;7.80;;;25.20;58.50;;;;;;5090959;28;20458;-87
2022/08/18 05:39:25;;;;;;;11.90;7.30;;;25.30;59.10;;;;;;5087161;28;21196;-86
2022/08/18 05:41:55;;;;;;;8.80;7.70;;;25.30;58.50;;;;;;5092709;28;20470;-86
2022/08/18 05:44:31;;;;;;;11.73;8.73;;;25.40;58.10;;;;;;5090323;28;20741;-87
2022/08/18 05:47:03;;;;;;;10.20;7.83;;;25.40;58.20;;;;;;5091923;28;20443;-87
2022/08/18 05:49:33;;;;;;;8.03;7.23;;;25.50;57.80;;;;;;5069590;28;20464;-86
2022/08/18 05:52:05;;;;;;;8.20;7.40;;;25.50;57.70;;;;;;5073375;28;20501;-87
2022/08/18 05:57:30;;;;;;;13.50;8.30;;;25.60;57.70;;;;;;5090985;28;20455;-88
2022/08/18 05:59:58;;;;;;;9.97;8.17;;;25.60;57.80;;;;;;5090154;28;20478;-88
2022/08/18 06:02:32;;;;;;;10.40;7.67;;;25.60;57.80;;;;;;5089095;28;20541;-88
2022/08/18 06:05:10;;;;;;;9.03;8.13;;;25.70;57.60;;;;;;5089979;28;20935;-88
2022/08/18 06:07:43;;;;;;;13.23;8.47;;;25.70;57.60;;;;;;5089085;28;20447;-87
2022/08/18 06:10:11;;;;;;;8.10;7.30;;;25.70;58.30;;;;;;5090595;28;20464;-86
2022/08/18 06:12:41;;;;;;;10.50;9.07;;;25.70;57.70;;;;;;5096473;28;20455;-86
2022/08/18 06:15:14;;;;;;;12.57;8.80;;;25.60;57.70;;;;;;5093156;28;20472;-86
2022/08/18 06:18:09;;;;;;;7.83;7.03;;;25.60;57.80;;;;;;5092008;28;21243;-86
2022/08/18 06:20:52;;;;;;;9.33;8.00;;;25.50;57.80;;;;;;5091150;28;20470;-85
2022/08/18 06:23:27;;;;;;;10.63;8.30;;;25.30;58.20;;;;;;5064225;28;20852;-85
2022/08/18 06:26:03;;;;;;;8.50;7.60;;;25.30;58.30;;;;;;5080662;28;20446;-86
2022/08/18 06:28:44;;;;;;;10.27;9.23;;;25.20;58.60;;;;;;5055454;28;20456;-86
2022/08/18 06:31:23;;;;;;;11.33;8.07;;;25.20;58.20;;;;;;5067206;28;20970;-85
2022/08/18 06:34:02;;;;;;;10.30;9.10;;;25.30;58.10;;;;;;5094077;28;20554;-86
2022/08/18 06:36:40;;;;;;;11.30;8.67;;;25.40;58.10;;;;;;5050114;28;20820;-85
2022/08/18 06:39:26;;;;;;;14.17;8.50;;;25.60;58.10;;;;;;5089533;28;20447;-87
2022/08/18 06:41:54;;;;;;;10.93;7.77;;;25.60;57.90;;;;;;5087972;28;20467;-88
2022/08/18 06:44:29;;;;;;;9.53;8.33;;;25.70;57.80;;;;;;5071832;28;20483;-87
2022/08/18 06:47:03;;;;;;;9.23;8.33;;;25.70;57.40;;;;;;5087223;28;21001;-88
2022/08/18 06:49:39;;;;;;;8.80;7.77;;;25.70;57.90;;;;;;5071813;28;20460;-87
2022/08/18 06:52:25;;;;;;;11.70;8.57;;;25.80;58.00;;;;;;5084728;28;21016;-88
2022/08/18 06:54:54;;;;;;;9.80;8.80;;;25.60;58.10;;;;;;5084654;28;20467;-88
2022/08/18 06:57:32;;;;;;;12.27;8.83;;;25.70;58.50;;;;;;5085444;28;20454;-88
2022/08/18 07:00:04;;;;;;;12.60;9.60;;;25.60;58.50;;;;;;5084986;28;20535;-88
2022/08/18 07:02:51;;;;;;;12.20;8.80;;;25.60;58.70;;;;;;5087172;28;20529;-87
2022/08/18 07:05:24;;;;;;;10.87;9.10;;;25.70;58.80;;;;;;5088222;28;20444;-86
2022/08/18 07:08:15;;;;;;;11.87;10.10;;;25.70;58.80;;;;;;5087224;28;20456;-88
2022/08/18 07:10:44;;;;;;;9.83;8.80;;;25.60;59.20;;;;;;5089334;28;20931;-88
2022/08/18 07:13:22;;;;;;;11.73;10.20;;;25.60;58.70;;;;;;5087392;28;20463;-87
2022/08/18 07:15:50;;;;;;;13.37;10.77;;;25.60;58.20;;;;;;5091690;28;20484;-87
2022/08/18 07:18:23;;;;;;;13.57;11.97;;;25.60;58.00;;;;;;5088181;28;20463;-87
2022/08/18 07:20:53;;;;;;;14.40;11.87;;;25.70;57.50;;;;;;5090374;28;20844;-87
2022/08/18 07:23:28;;;;;;;14.60;11.07;;;25.80;57.20;;;;;;5090060;28;20447;-86
2022/08/18 07:26:04;;;;;;;12.87;10.47;;;25.80;56.60;;;;;;5090290;28;20873;-87
2022/08/18 07:28:35;;;;;;;14.23;10.50;;;25.80;56.70;;;;;;5070489;28;20438;-88
2022/08/18 07:31:19;;;;;;;12.10;10.60;;;25.90;56.90;;;;;;5091632;28;20458;-88
2022/08/18 07:33:53;;;;;;;12.57;9.50;;;25.90;57.40;;;;;;5089245;28;20467;-87
2022/08/18 07:36:23;;;;;;;12.97;10.73;;;26.00;57.80;;;;;;5088118;28;20538;-89
2022/08/18 07:38:56;;;;;;;12.30;10.60;;;26.00;57.90;;;;;;5071092;28;20451;-86
2022/08/18 07:41:27;;;;;;;12.57;10.67;;;26.00;57.90;;;;;;5089485;28;20469;-89
2022/08/18 07:44:05;;;;;;;11.20;10.10;;;26.10;58.00;;;;;;5087859;28;20457;-88
2022/08/18 07:46:36;;;;;;;13.10;10.20;;;26.10;57.70;;;;;;5087128;28;20533;-88
2022/08/18 07:49:05;;;;;;;12.10;10.50;;;26.00;57.10;;;;;;5087055;28;21314;-87
2022/08/18 07:51:44;;;;;;;11.30;9.60;;;26.00;57.60;;;;;;5087463;28;20478;-88
2022/08/18 07:54:22;;;;;;;12.40;9.37;;;25.90;58.10;;;;;;5086486;28;20575;-88
2022/08/18 07:56:55;;;;;;;11.80;9.50;;;25.90;57.30;;;;;;5091773;28;20454;-88
2022/08/18 07:59:30;;;;;;;12.50;9.80;;;26.00;57.80;;;;;;5069250;28;20451;-88
2022/08/18 08:02:18;;;;;;;10.73;9.50;;;26.00;57.70;;;;;;5088138;28;20458;-87
2022/08/18 08:04:52;;;;;;;17.43;9.53;;;26.10;57.80;;;;;;5086554;28;20486;-88
2022/08/18 08:07:24;;;;;;;13.10;10.57;;;26.10;57.50;;;;;;5071007;28;20969;-88
2022/08/18 08:10:03;;;;;;;13.83;10.73;;;26.10;57.50;;;;;;5073626;28;20624;-88
2022/08/18 08:12:40;;;;;;;11.80;10.60;;;26.10;57.80;;;;;;5079982;28;20451;-90
2022/08/18 08:15:20;;;;;;;14.10;10.70;;;26.20;57.70;;;;;;5086544;28;20453;-90
2022/08/18 08:17:54;;;;;;;14.30;11.40;;;26.00;57.50;;;;;;5089353;28;21431;-87
2022/08/18 08:20:27;;;;;;;11.93;9.77;;;25.90;57.90;;;;;;5087163;28;21055;-88
2022/08/18 08:23:05;;;;;;;11.43;10.20;;;25.80;58.00;;;;;;5083673;28;20839;-88
2022/08/18 08:25:46;;;;;;;12.50;9.70;;;26.00;57.50;;;;;;5069820;28;20446;-88
2022/08/18 08:28:22;;;;;;;11.40;9.50;;;26.10;57.40;;;;;;5085676;28;21164;-88
2022/08/18 08:31:03;;;;;;;15.03;11.90;;;26.40;57.60;;;;;;5088581;28;20478;-89
2022/08/18 08:33:36;;;;;;;10.30;8.90;;;26.50;56.70;;;;;;5088761;28;20469;-88
2022/08/18 08:36:07;;;;;;;11.17;10.00;;;26.50;56.30;;;;;;5089026;28;20513;-90
2022/08/18 08:38:43;;;;;;;11.40;10.20;;;26.60;56.10;;;;;;5087202;28;20484;-89
2022/08/18 08:41:18;;;;;;;11.70;10.50;;;26.70;56.10;;;;;;5062185;28;21056;-89
2022/08/18 08:43:52;;;;;;;11.17;9.80;;;26.60;55.60;;;;;;5071123;28;20438;-89
2022/08/18 08:46:22;;;;;;;12.07;10.87;;;26.60;55.60;;;;;;5064726;28;20439;-89
2022/08/18 08:48:56;;;;;;;11.73;10.30;;;26.50;55.90;;;;;;5074533;28;20543;-88
2022/08/18 08:51:36;;;;;;;12.57;10.13;;;26.40;56.20;;;;;;5061286;28;20468;-87
2022/08/18 08:54:10;;;;;;;11.27;9.73;;;26.40;56.50;;;;;;5055929;28;20471;-88
2022/08/18 08:56:44;;;;;;;10.83;9.73;;;26.50;56.40;;;;;;5067191;28;20497;-89
2022/08/18 08:59:13;;;;;;;12.83;10.77;;;26.50;56.50;;;;;;5072861;28;20818;-88
2022/08/18 09:01:48;;;;;;;14.13;11.80;;;26.50;56.20;;;;;;5093438;28;20470;-87
2022/08/18 09:04:30;;;;;;;14.60;10.83;;;26.60;56.10;;;;;;5090100;28;20438;-88
2022/08/18 09:07:09;;;;;;;15.07;11.23;;;26.70;55.70;;;;;;5092409;28;20534;-89
2022/08/18 09:09:56;;;;;;;11.87;10.67;;;26.70;55.90;;;;;;5090966;28;20443;-89
2022/08/18 09:12:43;;;;;;;15.90;11.70;;;26.70;55.70;;;;;;5043495;28;20461;-88
2022/08/18 09:15:39;;;;;;;17.43;12.33;;;26.70;55.60;;;;;;5055517;28;20470;-86
2022/08/18 09:18:34;;;;;;;14.70;11.57;;;26.70;55.70;;;;;;5070239;28;20476;-88
2022/08/18 09:21:21;;;;;;;15.60;11.50;;;26.80;56.20;;;;;;5075137;28;20479;-88
2022/08/18 09:23:52;;;;;;;15.87;12.53;;;26.80;56.30;;;;;;5071230;28;20442;-88
2022/08/18 09:26:39;;;;;;;15.17;11.33;;;26.70;55.60;;;;;;5057518;28;20444;-88
2022/08/18 09:29:16;;;;;;;16.60;13.03;;;26.70;55.70;;;;;;5072931;28;20435;-89
2022/08/18 09:31:45;;;;;;;18.70;12.57;;;26.70;55.20;;;;;;5037301;28;20907;-88
2022/08/18 09:34:39;;;;;;;15.20;11.97;;;26.50;55.20;;;;;;5044135;28;20523;-88
2022/08/18 09:37:16;;;;;;;17.67;11.70;;;26.50;56.20;;;;;;5084345;28;21142;-88
2022/08/18 09:42:41;;;;;;;15.10;12.90;;;26.50;55.30;;;;;;5055319;28;21070;-87
2022/08/18 09:45:31;;;;;;;15.80;13.00;;;26.50;55.50;;;;;;5090995;28;20440;-87
2022/08/18 09:48:22;;;;;;;13.00;11.70;;;26.50;56.40;;;;;;5090285;28;20448;-87
2022/08/18 09:51:23;;;;;;;15.93;13.07;;;26.60;56.10;;;;;;5088079;28;20472;-87
2022/08/18 09:54:13;;;;;;;13.10;11.80;;;26.70;56.00;;;;;;5043682;28;20478;-86
2022/08/18 09:57:16;;;;;;;17.33;13.43;;;26.80;55.60;;;;;;5077350;28;20568;-87
2022/08/18 10:00:19;;;;;;;15.13;12.40;;;26.80;55.60;;;;;;5072057;28;20962;-87
2022/08/18 10:03:23;;;;;;;19.53;14.37;;;26.80;55.40;;;;;;5090775;28;20447;-86
2022/08/18 10:06:15;;;;;;;14.97;12.70;;;26.80;55.30;;;;;;5074293;28;20499;-87
2022/08/18 10:09:29;;;;;;;16.50;13.50;;;26.70;55.40;;;;;;5089366;28;21199;-86
2022/08/18 10:12:22;;;;;;;14.87;13.27;;;26.60;55.60;;;;;;5090950;28;21136;-86
2022/08/18 10:15:02;;;;;;;15.90;13.23;;;26.50;56.00;;;;;;5080351;28;20463;-86
2022/08/18 10:17:45;;;;;;;16.80;13.30;;;26.50;56.00;;;;;;5070424;28;20525;-86
2022/08/18 10:20:23;;;;;;;15.07;12.73;;;26.60;55.90;;;;;;5090777;28;20436;-86
2022/08/18 10:22:50;;;;;;;17.10;13.13;;;26.60;55.80;;;;;;5074051;28;20477;-88
2022/08/18 10:25:34;;;;;;;15.20;13.00;;;26.60;56.20;;;;;;5055957;28;20455;-88
2022/08/18 10:28:04;;;;;;;16.40;14.67;;;26.60;56.20;;;;;;5087845;28;20736;-87
2022/08/18 10:31:02;;;;;;;15.93;12.47;;;26.60;56.80;;;;;;5089133;28;20459;-87
2022/08/18 10:34:07;;;;;;;14.50;12.33;;;26.50;56.20;;;;;;5089608;28;20458;-86
2022/08/18 10:36:48;;;;;;;16.30;14.40;;;26.60;56.30;;;;;;5015865;28;20784;-86
2022/08/18 10:39:18;;;;;;;16.10;14.40;;;26.40;56.50;;;;;;5015647;28;20984;-87
2022/08/18 10:42:03;;;;;;;17.00;13.90;;;26.30;56.70;;;;;;5055974;28;20515;-87
2022/08/18 10:44:36;;;;;;;18.13;13.83;;;26.30;57.00;;;;;;5086116;28;20451;-87
2022/08/18 10:47:03;;;;;;;19.33;16.03;;;26.20;57.10;;;;;;5070585;28;20444;-87
2022/08/18 10:49:32;;;;;;;19.00;14.77;;;26.40;57.00;;;;;;5086389;28;20458;-87
2022/08/18 10:52:30;;;;;;;17.37;13.70;;;26.40;57.00;;;;;;5087056;28;20998;-87
2022/08/18 10:55:32;;;;;;;15.63;13.97;;;26.40;56.60;;;;;;5073281;28;20486;-87
2022/08/18 10:58:17;;;;;;;17.77;13.20;;;26.60;56.60;;;;;;5088056;28;20526;-88
2022/08/18 11:00:54;;;;;;;17.87;15.10;;;26.80;56.10;;;;;;5089828;28;20474;-88
2022/08/18 11:03:34;;;;;;;17.77;14.20;;;26.90;56.50;;;;;;5087492;28;20442;-87
2022/08/18 11:06:04;;;;;;;17.17;13.83;;;27.40;56.50;;;;;;5089738;28;20454;-86
2022/08/18 11:08:36;;;;;;;20.03;15.70;;;27.80;54.60;;;;;;5086705;28;20446;-87
2022/08/18 11:11:07;;;;;;;17.37;15.57;;;28.10;54.00;;;;;;5087845;28;20514;-87
2022/08/18 11:13:44;;;;;;;17.03;15.20;;;28.30;53.10;;;;;;5068505;28;20451;-86
2022/08/18 11:16:21;;;;;;;20.40;16.37;;;28.30;52.80;;;;;;5088962;28;20431;-87
2022/08/18 11:18:53;;;;;;;19.33;16.30;;;28.60;53.10;;;;;;5089228;28;20463;-87
2022/08/18 11:21:37;;;;;;;25.17;17.97;;;28.90;52.10;;;;;;5068513;28;20468;-88
2022/08/18 11:24:10;;;;;;;21.77;16.50;;;29.00;51.40;;;;;;5087621;28;20439;-87
2022/08/18 11:26:40;;;;;;;19.20;15.40;;;29.10;50.90;;;;;;5087563;28;20447;-87
2022/08/18 11:29:25;;;;;;;24.53;16.90;;;29.00;51.50;;;;;;5087149;28;20934;-86
2022/08/18 11:31:56;;;;;;;18.57;16.53;;;29.20;50.50;;;;;;5090697;28;20472;-88
2022/08/18 11:34:29;;;;;;;21.43;17.27;;;29.30;51.30;;;;;;5090431;28;20456;-87
2022/08/18 11:36:59;;;;;;;21.20;18.00;;;29.40;49.60;;;;;;5091804;28;20441;-88
2022/08/18 11:39:29;;;;;;;21.40;17.93;;;29.10;49.60;;;;;;5090452;28;20444;-87
2022/08/18 11:41:56;;;;;;;23.07;17.67;;;29.10;49.90;;;;;;5089710;28;20467;-87
2022/08/18 11:44:31;;;;;;;18.53;16.70;;;29.30;49.90;;;;;;5087538;28;21447;-87
2022/08/18 11:47:12;;;;;;;18.17;15.47;;;29.30;49.20;;;;;;5068177;28;20450;-87
2022/08/18 11:49:49;;;;;;;17.30;14.87;;;29.00;49.30;;;;;;5091271;28;20455;-88
2022/08/18 11:52:22;;;;;;;18.73;14.40;;;28.90;49.80;;;;;;5088015;28;20451;-87
2022/08/18 11:54:51;;;;;;;18.80;15.93;;;28.80;49.60;;;;;;5072271;28;20464;-87
2022/08/18 11:57:30;;;;;;;19.20;15.90;;;28.70;50.30;;;;;;5091789;28;20534;-87
2022/08/18 11:59:57;;;;;;;18.57;16.10;;;28.80;50.10;;;;;;5091684;28;20451;-86
2022/08/18 12:02:26;;;;;;;16.53;13.90;;;28.60;50.30;;;;;;5095902;28;20455;-87
2022/08/18 12:04:59;;;;;;;15.33;13.70;;;28.60;50.40;;;;;;5055742;28;20527;-87
2022/08/18 12:07:30;;;;;;;18.03;15.57;;;28.60;50.70;;;;;;5092709;28;21004;-88
2022/08/18 12:10:19;;;;;;;18.23;16.03;;;28.60;50.50;;;;;;5060338;28;20443;-87
2022/08/18 12:12:48;;;;;;;15.47;13.87;;;28.50;50.30;;;;;;5092563;28;20468;-87
2022/08/18 12:15:27;;;;;;;17.30;13.43;;;28.60;50.40;;;;;;5090886;28;20464;-87
2022/08/18 12:17:54;;;;;;;15.00;13.07;;;28.80;50.20;;;;;;5093449;28;20454;-88
2022/08/18 12:20:22;;;;;;;14.83;13.30;;;28.90;50.20;;;;;;5089401;28;20463;-87
2022/08/18 12:22:49;;;;;;;13.83;12.43;;;28.90;50.20;;;;;;5059471;28;21305;-87
2022/08/18 12:25:19;;;;;;;15.20;13.13;;;29.00;49.60;;;;;;5090273;28;20443;-89
2022/08/18 12:27:46;;;;;;;16.60;13.97;;;29.10;48.80;;;;;;5091778;28;20452;-88
2022/08/18 12:30:14;;;;;;;14.60;11.70;;;29.10;48.50;;;;;;5091424;28;20533;-87
2022/08/18 12:32:41;;;;;;;12.70;11.40;;;29.00;48.40;;;;;;5074687;28;20452;-87
2022/08/18 12:35:10;;;;;;;11.17;10.10;;;29.20;48.30;;;;;;5088375;28;21222;-86
2022/08/18 12:37:41;;;;;;;15.50;11.40;;;29.60;47.10;;;;;;5090169;28;20451;-86
2022/08/18 12:40:10;;;;;;;16.33;11.63;;;30.00;46.30;;;;;;5089430;28;20446;-87
2022/08/18 12:42:39;;;;;;;15.23;11.00;;;30.20;45.60;;;;;;5092931;28;20455;-86
2022/08/18 12:45:07;;;;;;;11.87;10.03;;;30.10;45.50;;;;;;5091088;28;20432;-87
2022/08/18 12:47:40;;;;;;;11.50;10.30;;;30.10;44.70;;;;;;5092511;28;20455;-87
2022/08/18 12:50:08;;;;;;;12.00;9.57;;;30.00;44.50;;;;;;5089781;28;20455;-88
2022/08/18 12:52:35;;;;;;;10.67;9.67;;;30.20;45.70;;;;;;5087887;28;20451;-87
2022/08/18 12:55:02;;;;;;;11.10;9.20;;;30.30;43.90;;;;;;5089233;28;20479;-88
2022/08/18 12:57:29;;;;;;;10.70;9.40;;;30.50;43.20;;;;;;5073686;28;21018;-87
2022/08/18 12:59:58;;;;;;;9.83;8.90;;;30.70;44.10;;;;;;5071084;28;20458;-88
2022/08/18 13:02:25;;;;;;;11.60;10.03;;;30.70;43.30;;;;;;5088228;28;21158;-87
2022/08/18 13:04:52;;;;;;;9.63;8.83;;;30.80;43.70;;;;;;5080002;28;20566;-89
2022/08/18 13:07:19;;;;;;;11.00;8.50;;;30.80;42.70;;;;;;5081252;28;20455;-89
2022/08/18 13:09:46;;;;;;;10.30;9.30;;;30.80;42.40;;;;;;5090439;28;20450;-89
2022/08/18 13:12:14;;;;;;;9.53;8.57;;;30.70;42.40;;;;;;5078297;28;20471;-89
2022/08/18 13:14:42;;;;;;;9.67;8.40;;;30.70;42.80;;;;;;5086066;28;20474;-89
2022/08/18 13:17:10;;;;;;;9.40;8.50;;;30.90;42.30;;;;;;5088385;28;20476;-89
2022/08/18 13:19:38;;;;;;;9.50;8.53;;;30.90;42.10;;;;;;5083795;28;20467;-88
2022/08/18 13:22:05;;;;;;;8.40;7.57;;;30.90;41.90;;;;;;5070765;28;20554;-89
2022/08/18 13:24:32;;;;;;;8.97;8.13;;;31.00;40.80;;;;;;5088850;28;20458;-87
2022/08/18 13:26:59;;;;;;;8.80;8.03;;;30.70;41.30;;;;;;5094936;28;20458;-90